Time;durP1;ratioP1;P1;durP2;ratioP2;P2;SDS_P1;SDS_P2;PMS_P1;PMS_P2;Temp;Humidity;BMP_temperature;BMP_pressure;BME280_temperature;BME280_humidity;BME280_pressure;Samples;Min_cycle;Max_cycle;Signal;HPM_P1;HPM_P2
2024/03/24 00:00:19;;;;;;;4.07;2.50;;;5.90;99.90;;;;;;4910835;28;20519;-71
2024/03/24 00:02:46;;;;;;;1.40;1.30;;;5.80;99.90;;;;;;4913886;28;20219;-69
2024/03/24 00:05:13;;;;;;;3.73;1.93;;;5.80;99.90;;;;;;4912535;28;20438;-69
2024/03/24 00:07:39;;;;;;;2.03;1.47;;;5.80;99.90;;;;;;4916499;28;20471;-71
2024/03/24 00:10:08;;;;;;;1.70;1.57;;;5.90;99.90;;;;;;4904762;28;20509;-70
2024/03/24 00:12:34;;;;;;;3.43;1.47;;;6.00;99.90;;;;;;4918772;28;20573;-69
2024/03/24 00:15:00;;;;;;;1.10;0.97;;;5.90;99.90;;;;;;4912348;28;20534;-70
2024/03/24 00:17:26;;;;;;;2.60;1.93;;;6.00;99.90;;;;;;4921326;28;20207;-71
2024/03/24 00:19:54;;;;;;;1.67;1.47;;;6.00;99.90;;;;;;4912366;28;20477;-69
2024/03/24 00:22:20;;;;;;;2.33;2.13;;;6.10;99.90;;;;;;4907236;28;20287;-70
2024/03/24 00:24:47;;;;;;;1.97;1.60;;;6.10;99.90;;;;;;4911157;28;20869;-70
2024/03/24 00:27:15;;;;;;;4.50;2.10;;;6.00;99.90;;;;;;4913498;28;20454;-70
2024/03/24 00:29:42;;;;;;;1.20;1.00;;;6.20;99.90;;;;;;4915775;28;20933;-71
2024/03/24 00:32:08;;;;;;;1.60;1.50;;;6.10;99.90;;;;;;4926084;28;20809;-70
2024/03/24 00:34:35;;;;;;;4.63;2.27;;;6.20;99.90;;;;;;4912201;28;20992;-70
2024/03/24 00:37:02;;;;;;;1.40;1.03;;;6.00;99.90;;;;;;4915230;28;20463;-69
2024/03/24 00:39:29;;;;;;;2.93;1.90;;;6.00;99.90;;;;;;4910658;28;20454;-70
2024/03/24 00:41:55;;;;;;;2.30;1.30;;;5.90;99.90;;;;;;4908276;28;20459;-70
2024/03/24 00:44:22;;;;;;;12.30;4.00;;;6.00;99.90;;;;;;4911512;28;20440;-70
2024/03/24 00:46:47;;;;;;;9.33;2.03;;;5.90;99.90;;;;;;4921308;28;20228;-70
2024/03/24 00:49:14;;;;;;;3.50;2.20;;;5.90;99.90;;;;;;4936169;28;20430;-69
2024/03/24 00:51:40;;;;;;;7.33;1.80;;;5.90;99.90;;;;;;4934826;28;20232;-70
2024/03/24 00:54:08;;;;;;;2.70;2.07;;;5.90;99.90;;;;;;4930806;28;20958;-70
2024/03/24 00:56:34;;;;;;;3.27;1.53;;;5.90;99.90;;;;;;4926222;28;20259;-70
2024/03/24 00:59:01;;;;;;;6.00;1.60;;;5.90;99.90;;;;;;4930073;28;20804;-70
2024/03/24 01:01:27;;;;;;;4.50;2.57;;;6.00;99.90;;;;;;4927827;28;20494;-70
2024/03/24 01:03:54;;;;;;;1.70;1.47;;;6.00;99.90;;;;;;4926711;28;20980;-70
2024/03/24 01:06:20;;;;;;;3.50;2.30;;;5.90;99.90;;;;;;4931209;28;20657;-69
2024/03/24 01:08:48;;;;;;;1.37;1.27;;;5.90;99.90;;;;;;4938650;28;20474;-69
2024/03/24 01:11:15;;;;;;;3.70;1.80;;;6.00;99.90;;;;;;4929196;28;20217;-71
2024/03/24 01:13:42;;;;;;;4.20;2.67;;;6.00;99.90;;;;;;4917583;28;20492;-71
2024/03/24 01:16:08;;;;;;;2.03;1.80;;;6.10;99.90;;;;;;4919164;28;20472;-70
2024/03/24 01:18:34;;;;;;;2.17;1.97;;;6.10;99.90;;;;;;4907970;28;20439;-70
2024/03/24 01:21:03;;;;;;;2.40;1.90;;;6.10;99.90;;;;;;4922076;28;20527;-69
2024/03/24 01:23:30;;;;;;;2.17;1.10;;;6.10;99.90;;;;;;4905021;28;21022;-69
2024/03/24 01:25:56;;;;;;;1.83;1.73;;;6.10;99.90;;;;;;4908062;28;20464;-69
2024/03/24 01:28:24;;;;;;;2.23;2.13;;;6.10;99.90;;;;;;4904682;28;20427;-70
2024/03/24 01:30:50;;;;;;;6.00;3.53;;;6.00;99.90;;;;;;4900740;28;20307;-69
2024/03/24 01:33:16;;;;;;;6.20;2.60;;;6.20;99.90;;;;;;4905969;28;21282;-70
2024/03/24 01:35:46;;;;;;;2.07;1.67;;;6.10;99.90;;;;;;4899615;28;20247;-69
2024/03/24 01:38:13;;;;;;;5.90;3.17;;;6.10;99.90;;;;;;4904152;28;20459;-69
2024/03/24 01:40:46;;;;;;;3.60;3.07;;;6.10;99.90;;;;;;4909631;28;20471;-69
2024/03/24 01:43:12;;;;;;;4.70;2.97;;;6.00;99.90;;;;;;4908408;28;20445;-69
2024/03/24 01:45:40;;;;;;;5.80;2.67;;;6.00;99.90;;;;;;4908944;28;20451;-69
2024/03/24 01:48:08;;;;;;;3.43;3.13;;;6.00;99.90;;;;;;4914938;28;20625;-69
2024/03/24 01:50:34;;;;;;;2.07;1.53;;;6.00;99.90;;;;;;4913801;28;20548;-70
2024/03/24 01:53:01;;;;;;;3.30;2.00;;;6.10;99.90;;;;;;4905457;28;20426;-70
2024/03/24 01:55:27;;;;;;;3.27;2.60;;;6.00;99.90;;;;;;4909615;28;20480;-69
2024/03/24 01:57:54;;;;;;;3.43;2.80;;;5.90;99.90;;;;;;4906126;28;21068;-70
2024/03/24 02:00:20;;;;;;;1.80;1.63;;;6.00;99.90;;;;;;4906962;28;20247;-69
2024/03/24 02:02:48;;;;;;;5.00;2.93;;;6.10;99.90;;;;;;4903434;28;20877;-70
2024/03/24 02:05:22;;;;;;;4.60;3.10;;;6.10;99.90;;;;;;4909654;28;20435;-70
2024/03/24 02:07:48;;;;;;;6.00;2.83;;;6.10;99.90;;;;;;4908107;28;21008;-69
2024/03/24 02:10:14;;;;;;;4.40;3.27;;;6.10;99.90;;;;;;4916061;28;20439;-69
2024/03/24 02:12:41;;;;;;;2.67;2.10;;;6.20;99.90;;;;;;4898349;28;20485;-69
2024/03/24 02:15:07;;;;;;;2.47;1.70;;;6.20;99.90;;;;;;4915840;28;20477;-69
2024/03/24 02:17:34;;;;;;;3.13;2.83;;;6.20;99.90;;;;;;4910922;28;21122;-70
2024/03/24 02:20:02;;;;;;;2.37;2.17;;;6.10;99.90;;;;;;4920333;28;20671;-69
2024/03/24 02:22:34;;;;;;;3.80;2.73;;;6.00;99.90;;;;;;4906269;28;20451;-70
2024/03/24 02:25:00;;;;;;;3.27;2.40;;;6.10;99.90;;;;;;4909636;28;20572;-69
2024/03/24 02:27:26;;;;;;;6.70;4.07;;;6.10;99.90;;;;;;4906067;28;20464;-69
2024/03/24 02:29:52;;;;;;;3.50;3.20;;;6.10;99.90;;;;;;4909306;28;20216;-70
2024/03/24 02:32:19;;;;;;;5.07;2.03;;;6.10;99.90;;;;;;4906510;28;20706;-69
2024/03/24 02:34:45;;;;;;;2.87;2.30;;;6.10;99.90;;;;;;4915396;28;20211;-69
2024/03/24 02:37:12;;;;;;;4.63;4.07;;;6.00;99.90;;;;;;4912521;28;20479;-69
2024/03/24 02:39:39;;;;;;;4.30;2.47;;;6.00;99.90;;;;;;4907331;28;20226;-70
2024/03/24 02:42:06;;;;;;;2.50;2.00;;;6.10;99.90;;;;;;4909345;28;27137;-70
2024/03/24 02:44:32;;;;;;;11.23;3.17;;;6.10;99.90;;;;;;4908018;28;21147;-69
2024/03/24 02:46:59;;;;;;;6.17;3.67;;;6.20;99.90;;;;;;4915464;28;20555;-69
2024/03/24 02:49:24;;;;;;;2.67;2.47;;;6.10;99.90;;;;;;4930956;28;20440;-69
2024/03/24 02:51:51;;;;;;;4.10;2.47;;;6.10;99.90;;;;;;4928280;28;20443;-70
2024/03/24 02:54:17;;;;;;;5.87;2.83;;;6.00;99.90;;;;;;4929169;28;20213;-69
2024/03/24 02:56:45;;;;;;;2.93;1.87;;;6.00;99.90;;;;;;4917003;28;20470;-69
2024/03/24 02:59:11;;;;;;;5.00;3.17;;;6.10;99.90;;;;;;5097607;23;20220;-69
2024/03/24 03:01:38;;;;;;;6.77;4.20;;;6.00;99.90;;;;;;4929308;28;20512;-68
2024/03/24 03:04:04;;;;;;;6.50;3.77;;;5.90;99.90;;;;;;4947993;28;20436;-67
2024/03/24 03:06:31;;;;;;;6.33;3.70;;;5.90;99.90;;;;;;4929887;28;20465;-68
2024/03/24 03:08:57;;;;;;;2.83;2.63;;;6.00;99.90;;;;;;4935490;28;20452;-68
2024/03/24 03:11:23;;;;;;;7.03;3.17;;;6.00;99.90;;;;;;4940962;28;21081;-68
2024/03/24 03:13:51;;;;;;;2.20;2.00;;;5.90;99.90;;;;;;4947940;28;20668;-69
2024/03/24 03:16:17;;;;;;;4.47;3.97;;;5.90;99.90;;;;;;4931738;28;20702;-69
2024/03/24 03:18:43;;;;;;;3.40;1.40;;;5.90;99.90;;;;;;4944184;28;20477;-68
2024/03/24 03:21:10;;;;;;;4.13;3.73;;;5.90;99.90;;;;;;4929152;28;20478;-69
2024/03/24 03:23:36;;;;;;;11.00;3.80;;;5.80;99.90;;;;;;4931777;28;20675;-70
2024/03/24 03:26:02;;;;;;;3.40;3.00;;;5.70;99.90;;;;;;4927767;28;20837;-68
2024/03/24 03:28:28;;;;;;;3.97;3.10;;;5.80;99.90;;;;;;4926807;28;20232;-68
2024/03/24 03:30:56;;;;;;;5.20;3.17;;;5.70;99.90;;;;;;4935553;28;20453;-68
2024/03/24 03:33:22;;;;;;;4.90;3.50;;;5.70;99.90;;;;;;4931442;28;20210;-68
2024/03/24 03:35:49;;;;;;;12.93;4.47;;;5.70;99.90;;;;;;4929929;28;20493;-68
2024/03/24 03:38:15;;;;;;;3.20;2.40;;;5.60;99.90;;;;;;4941377;28;20214;-68
2024/03/24 03:40:41;;;;;;;3.10;2.77;;;5.70;99.90;;;;;;4930232;28;20466;-68
2024/03/24 03:43:08;;;;;;;2.67;2.00;;;5.70;99.90;;;;;;4940153;28;20216;-68
2024/03/24 03:45:34;;;;;;;1.50;1.40;;;5.50;99.90;;;;;;4939192;28;21426;-68
2024/03/24 03:48:02;;;;;;;3.23;2.57;;;5.50;99.90;;;;;;4933210;28;20444;-68
2024/03/24 03:50:33;;;;;;;4.60;3.33;;;5.50;99.90;;;;;;4936439;28;20556;-68
2024/03/24 03:53:01;;;;;;;2.00;1.83;;;5.50;99.90;;;;;;4936692;28;21248;-68
2024/03/24 03:55:28;;;;;;;2.90;1.83;;;5.40;99.90;;;;;;4937195;28;20490;-68
2024/03/24 03:57:54;;;;;;;3.90;2.87;;;5.50;99.90;;;;;;4944305;28;20926;-68
2024/03/24 04:00:21;;;;;;;4.03;3.23;;;5.50;99.90;;;;;;4939457;28;20561;-68
2024/03/24 04:02:48;;;;;;;5.73;1.93;;;5.60;99.90;;;;;;4936285;28;20297;-68
2024/03/24 04:05:17;;;;;;;4.00;2.07;;;5.60;99.90;;;;;;4942384;28;20459;-68
2024/03/24 04:07:43;;;;;;;6.47;3.30;;;5.60;99.90;;;;;;4933022;28;20448;-69
2024/03/24 04:10:10;;;;;;;4.07;3.53;;;5.70;99.90;;;;;;4952161;28;20430;-68
2024/03/24 04:12:36;;;;;;;2.87;2.67;;;5.60;99.90;;;;;;4930453;28;20231;-68
2024/03/24 04:15:04;;;;;;;4.63;3.70;;;5.60;99.90;;;;;;4940727;28;20425;-68
2024/03/24 04:17:31;;;;;;;2.77;2.20;;;5.70;99.90;;;;;;4934726;28;20466;-68
2024/03/24 04:20:03;;;;;;;1.83;1.70;;;5.70;99.90;;;;;;4939945;28;21102;-69
2024/03/24 04:22:30;;;;;;;5.60;3.43;;;5.70;99.90;;;;;;4942488;28;20488;-68
2024/03/24 04:24:57;;;;;;;3.83;3.37;;;5.70;99.90;;;;;;4932746;28;20447;-69
2024/03/24 04:27:23;;;;;;;5.07;3.37;;;5.70;99.90;;;;;;4928769;28;20934;-68
2024/03/24 04:29:50;;;;;;;5.13;3.87;;;5.70;99.90;;;;;;4940052;28;20426;-69
2024/03/24 04:32:16;;;;;;;5.33;2.30;;;5.70;99.90;;;;;;4943741;28;20213;-68
2024/03/24 04:34:42;;;;;;;5.60;3.90;;;5.80;99.90;;;;;;4940754;28;21593;-68
2024/03/24 04:37:08;;;;;;;7.30;4.33;;;5.80;99.90;;;;;;4938491;28;20208;-69
2024/03/24 04:39:37;;;;;;;5.33;2.87;;;5.80;99.90;;;;;;4946262;28;20457;-68
2024/03/24 04:42:04;;;;;;;7.40;4.60;;;5.80;99.90;;;;;;4935068;28;20828;-68
2024/03/24 04:44:33;;;;;;;6.63;4.60;;;5.70;99.90;;;;;;4934244;28;20545;-68
2024/03/24 04:46:59;;;;;;;5.77;3.83;;;5.80;99.90;;;;;;4942243;28;20765;-68
2024/03/24 04:49:26;;;;;;;5.07;3.17;;;5.70;99.90;;;;;;4954692;28;20441;-68
2024/03/24 04:51:52;;;;;;;6.47;4.50;;;5.70;99.90;;;;;;4953086;28;20457;-68
2024/03/24 04:54:18;;;;;;;6.03;4.20;;;5.70;99.90;;;;;;4948613;28;20469;-69
2024/03/24 04:56:46;;;;;;;6.73;3.90;;;5.80;99.90;;;;;;4942551;28;20442;-68
2024/03/24 04:59:12;;;;;;;6.93;3.63;;;5.80;99.90;;;;;;4951164;28;21110;-68
2024/03/24 05:01:38;;;;;;;2.70;2.50;;;5.80;99.90;;;;;;4946237;28;20505;-69
2024/03/24 05:04:05;;;;;;;8.43;4.13;;;5.80;99.90;;;;;;4955087;28;20462;-68
2024/03/24 05:06:31;;;;;;;3.80;3.50;;;5.80;99.90;;;;;;4955320;28;20239;-69
2024/03/24 05:08:58;;;;;;;8.53;5.07;;;5.80;99.90;;;;;;4929188;28;20526;-68
2024/03/24 05:11:25;;;;;;;16.53;6.80;;;5.80;99.90;;;;;;4930143;28;20502;-69
2024/03/24 05:13:53;;;;;;;6.43;4.00;;;5.80;99.90;;;;;;4935914;28;21114;-68
2024/03/24 05:16:19;;;;;;;10.27;5.30;;;5.80;99.90;;;;;;4946403;28;20464;-68
2024/03/24 05:18:46;;;;;;;6.10;5.50;;;5.90;99.90;;;;;;4927913;28;20436;-68
2024/03/24 05:21:11;;;;;;;7.47;4.43;;;6.00;99.90;;;;;;4934123;28;20231;-68
2024/03/24 05:23:38;;;;;;;5.10;4.20;;;6.10;99.90;;;;;;4940829;28;20447;-68
2024/03/24 05:26:04;;;;;;;4.93;4.43;;;6.20;99.90;;;;;;4931153;28;20204;-68
2024/03/24 05:28:31;;;;;;;2.60;2.47;;;6.10;99.90;;;;;;4939804;28;21072;-67
2024/03/24 05:30:58;;;;;;;2.77;2.50;;;6.00;99.90;;;;;;4950094;28;20220;-68
2024/03/24 05:33:25;;;;;;;12.10;4.50;;;5.90;99.90;;;;;;4944373;28;20431;-68
2024/03/24 05:35:58;;;;;;;2.33;1.77;;;6.00;99.90;;;;;;4929877;28;20471;-68
2024/03/24 05:38:25;;;;;;;3.60;3.20;;;6.10;99.90;;;;;;4938532;28;20459;-68
2024/03/24 05:40:56;;;;;;;4.83;3.20;;;5.90;99.90;;;;;;4938648;28;20491;-68
2024/03/24 05:43:23;;;;;;;4.33;3.93;;;5.90;99.90;;;;;;4941843;28;21001;-68
2024/03/24 05:45:52;;;;;;;5.53;4.13;;;6.00;99.90;;;;;;4935220;28;21360;-68
2024/03/24 05:48:20;;;;;;;3.33;3.03;;;6.00;99.90;;;;;;4930454;28;20445;-68
2024/03/24 05:50:46;;;;;;;3.30;2.60;;;6.00;99.90;;;;;;4934439;28;20593;-68
2024/03/24 05:53:13;;;;;;;8.93;4.67;;;6.00;99.90;;;;;;4938999;28;20425;-69
2024/03/24 05:55:38;;;;;;;2.93;2.13;;;6.00;99.90;;;;;;4934533;28;20204;-68
2024/03/24 05:58:05;;;;;;;5.20;3.17;;;6.00;99.90;;;;;;4930487;28;20433;-68
2024/03/24 06:00:31;;;;;;;6.17;3.60;;;6.10;99.90;;;;;;4930980;28;20212;-68
2024/03/24 06:02:58;;;;;;;7.90;3.60;;;6.10;99.90;;;;;;4938569;28;20457;-68
2024/03/24 06:05:25;;;;;;;11.83;4.13;;;6.00;99.90;;;;;;4933820;28;21261;-68
2024/03/24 06:07:52;;;;;;;5.27;2.93;;;6.10;99.90;;;;;;4926208;28;20459;-68
2024/03/24 06:10:17;;;;;;;4.17;3.60;;;6.20;99.90;;;;;;4933742;28;20476;-69
2024/03/24 06:12:44;;;;;;;6.00;3.47;;;6.00;99.90;;;;;;4929657;28;20471;-68
2024/03/24 06:15:10;;;;;;;7.70;4.07;;;5.90;99.90;;;;;;4926284;28;20865;-68
2024/03/24 06:17:38;;;;;;;3.20;2.90;;;6.00;99.90;;;;;;4924340;28;20725;-69
2024/03/24 06:20:06;;;;;;;6.80;3.17;;;6.10;99.90;;;;;;4941411;28;20474;-68
2024/03/24 06:22:34;;;;;;;4.43;3.33;;;5.90;99.90;;;;;;4941085;28;20465;-68
2024/03/24 06:25:00;;;;;;;3.77;2.53;;;5.80;99.90;;;;;;4933609;28;20437;-68
2024/03/24 06:27:27;;;;;;;4.57;3.23;;;5.80;99.90;;;;;;4934550;28;20932;-68
2024/03/24 06:29:53;;;;;;;3.77;2.53;;;5.60;99.90;;;;;;4941666;28;20212;-68
2024/03/24 06:32:20;;;;;;;1.60;1.37;;;5.60;99.90;;;;;;4935017;28;20579;-68
2024/03/24 06:34:46;;;;;;;2.70;2.50;;;5.60;99.90;;;;;;4927566;28;20554;-68
2024/03/24 06:37:13;;;;;;;3.93;2.20;;;5.70;99.90;;;;;;4921799;28;20505;-69
2024/03/24 06:39:40;;;;;;;1.60;1.50;;;5.80;99.90;;;;;;4930555;28;20672;-68
2024/03/24 06:42:08;;;;;;;4.47;2.70;;;5.80;99.90;;;;;;4932937;28;20494;-68
2024/03/24 06:44:37;;;;;;;3.90;2.33;;;5.90;99.90;;;;;;4929097;28;20475;-68
2024/03/24 06:47:04;;;;;;;4.33;3.33;;;5.90;99.90;;;;;;4925458;28;20963;-69
2024/03/24 06:49:30;;;;;;;3.33;2.73;;;6.00;99.90;;;;;;4944699;28;20937;-69
2024/03/24 06:51:57;;;;;;;10.98;3.50;;;6.10;99.90;;;;;;4947328;28;20744;-68
2024/03/24 06:54:25;;;;;;;4.60;2.93;;;6.10;99.90;;;;;;4955134;28;20204;-68
2024/03/24 06:56:53;;;;;;;6.87;3.20;;;6.10;99.90;;;;;;4956708;28;20493;-68
2024/03/24 06:59:19;;;;;;;6.38;5.15;;;6.20;99.90;;;;;;4953219;28;20788;-69
2024/03/24 07:01:46;;;;;;;4.40;3.63;;;6.30;99.90;;;;;;4950179;28;20232;-68
2024/03/24 07:04:12;;;;;;;5.10;4.10;;;6.40;99.90;;;;;;4957049;28;20296;-69
2024/03/24 07:06:38;;;;;;;4.53;2.93;;;6.50;99.90;;;;;;4958104;28;20466;-70
2024/03/24 07:09:06;;;;;;;3.37;3.07;;;6.50;99.90;;;;;;4952047;28;20206;-70
2024/03/24 07:11:33;;;;;;;4.10;2.57;;;6.60;99.90;;;;;;4958034;28;20998;-69
2024/03/24 07:14:00;;;;;;;4.10;3.03;;;6.60;99.90;;;;;;4952577;28;20481;-69
2024/03/24 07:16:27;;;;;;;3.10;2.80;;;6.50;99.90;;;;;;4951453;28;20532;-69
2024/03/24 07:18:53;;;;;;;3.37;3.07;;;6.70;99.90;;;;;;4951946;28;20441;-69
2024/03/24 07:21:19;;;;;;;3.57;2.70;;;6.60;99.90;;;;;;4958429;28;21247;-68
2024/03/24 07:23:45;;;;;;;3.67;2.90;;;6.70;99.90;;;;;;4953284;28;20204;-70
2024/03/24 07:26:12;;;;;;;1.83;1.60;;;6.80;99.90;;;;;;4945327;28;20450;-68
2024/03/24 07:28:38;;;;;;;5.33;2.70;;;6.80;99.90;;;;;;4939751;28;20204;-69
2024/03/24 07:31:06;;;;;;;2.17;1.70;;;6.80;99.90;;;;;;4939425;28;20478;-69
2024/03/24 07:33:34;;;;;;;2.90;2.47;;;6.90;99.90;;;;;;4942557;28;20516;-69
2024/03/24 07:36:01;;;;;;;3.80;2.67;;;7.10;99.90;;;;;;4950957;28;21240;-70
2024/03/24 07:38:27;;;;;;;2.63;1.90;;;7.10;99.90;;;;;;4940077;28;20464;-69
2024/03/24 07:40:54;;;;;;;5.30;2.07;;;7.10;99.90;;;;;;4943988;28;20486;-69
2024/03/24 07:43:20;;;;;;;5.83;2.70;;;7.10;99.90;;;;;;4952881;28;20608;-69
2024/03/24 07:45:46;;;;;;;4.80;2.33;;;7.00;99.90;;;;;;4947924;28;20455;-69
2024/03/24 07:48:13;;;;;;;1.30;1.20;;;7.10;99.90;;;;;;4948413;28;20203;-69
2024/03/24 07:50:41;;;;;;;2.30;1.90;;;7.10;99.90;;;;;;4945738;28;21044;-69
2024/03/24 07:53:10;;;;;;;3.70;2.07;;;7.10;99.90;;;;;;4938659;28;20425;-69
2024/03/24 07:55:37;;;;;;;3.20;1.43;;;7.10;99.90;;;;;;4950183;28;20541;-68
2024/03/24 07:58:03;;;;;;;1.93;1.83;;;7.10;99.90;;;;;;4950431;28;20461;-70
2024/03/24 08:00:30;;;;;;;4.20;1.90;;;7.00;99.90;;;;;;4939040;28;20520;-69
2024/03/24 08:02:56;;;;;;;4.70;2.60;;;6.90;99.90;;;;;;4942188;28;20793;-70
2024/03/24 08:05:24;;;;;;;2.43;1.60;;;7.00;99.90;;;;;;4943269;28;20463;-69
2024/03/24 08:07:49;;;;;;;4.43;2.53;;;7.00;99.90;;;;;;4942939;28;20865;-69
2024/03/24 08:10:17;;;;;;;3.23;1.87;;;6.90;99.90;;;;;;4933476;28;20210;-69
2024/03/24 08:12:42;;;;;;;2.57;1.73;;;6.70;99.90;;;;;;4937650;28;20219;-69
2024/03/24 08:15:09;;;;;;;3.00;1.80;;;6.80;99.90;;;;;;4933042;28;20474;-69
2024/03/24 08:17:35;;;;;;;3.70;2.90;;;6.70;99.90;;;;;;4937198;28;20212;-69
2024/03/24 08:20:02;;;;;;;2.73;1.80;;;6.60;99.90;;;;;;4944491;28;21084;-70
2024/03/24 08:22:29;;;;;;;2.00;1.63;;;6.60;99.90;;;;;;4931898;28;20244;-70
2024/03/24 08:24:56;;;;;;;2.03;1.73;;;6.40;99.90;;;;;;4927021;28;20438;-69
2024/03/24 08:27:23;;;;;;;1.30;1.20;;;6.40;99.90;;;;;;4937615;28;20910;-69
2024/03/24 08:29:49;;;;;;;2.43;2.23;;;6.30;99.90;;;;;;4944492;28;20485;-69
2024/03/24 08:32:17;;;;;;;1.70;1.30;;;6.30;99.90;;;;;;4940040;28;20791;-70
2024/03/24 08:34:42;;;;;;;1.93;1.63;;;6.40;99.90;;;;;;4935614;28;20453;-69
2024/03/24 08:37:09;;;;;;;2.90;2.40;;;6.60;99.90;;;;;;4939132;28;20429;-69
2024/03/24 08:39:36;;;;;;;1.50;1.40;;;6.60;99.90;;;;;;4940643;28;20275;-69
2024/03/24 08:42:03;;;;;;;1.13;1.03;;;6.90;99.90;;;;;;4939065;28;20458;-69
2024/03/24 08:44:29;;;;;;;2.63;1.73;;;7.30;99.90;;;;;;4938574;28;20493;-70
2024/03/24 08:46:56;;;;;;;2.93;1.90;;;7.70;99.90;;;;;;4932743;28;20459;-70
2024/03/24 08:49:22;;;;;;;1.60;1.50;;;7.80;99.90;;;;;;4946051;28;20815;-69
2024/03/24 08:51:50;;;;;;;1.90;1.80;;;7.90;99.90;;;;;;4947852;28;20459;-70
2024/03/24 08:54:15;;;;;;;2.20;1.33;;;8.20;99.90;;;;;;4955774;28;20208;-69
2024/03/24 08:56:44;;;;;;;3.20;1.30;;;8.20;99.90;;;;;;4958268;28;20918;-70
2024/03/24 08:59:09;;;;;;;5.87;2.40;;;8.00;99.90;;;;;;4958433;28;20224;-69
2024/03/24 09:01:36;;;;;;;3.60;2.27;;;8.00;99.90;;;;;;4950505;28;20484;-69
2024/03/24 09:04:02;;;;;;;1.70;1.60;;;8.00;99.90;;;;;;4952376;28;20234;-69
2024/03/24 09:06:29;;;;;;;2.30;2.00;;;8.20;99.90;;;;;;4958733;28;20979;-70
2024/03/24 09:08:56;;;;;;;6.40;2.87;;;8.30;99.90;;;;;;4951179;28;20201;-70
2024/03/24 09:11:22;;;;;;;1.50;1.30;;;8.50;99.90;;;;;;4957048;28;21146;-69
2024/03/24 09:13:49;;;;;;;2.67;1.73;;;8.50;99.90;;;;;;4950509;28;20817;-69
2024/03/24 09:16:16;;;;;;;6.77;3.83;;;8.30;99.90;;;;;;4950101;28;20430;-69
2024/03/24 09:18:45;;;;;;;3.53;2.90;;;8.20;99.90;;;;;;4952785;28;20493;-69
2024/03/24 09:21:12;;;;;;;3.20;2.70;;;8.20;99.90;;;;;;4944145;28;20960;-69
2024/03/24 09:23:38;;;;;;;3.53;2.20;;;8.30;99.90;;;;;;4941738;28;20462;-69
2024/03/24 09:26:05;;;;;;;6.10;4.67;;;8.80;99.90;;;;;;4945994;28;20762;-68
2024/03/24 09:28:31;;;;;;;4.30;2.97;;;9.00;99.90;;;;;;4944925;28;20979;-67
2024/03/24 09:33:44;;;;;;;5.33;3.67;;;9.40;99.90;;;;;;5023458;23;20267;-69
2024/03/24 09:36:15;;;;;;;13.13;3.40;;;9.40;99.90;;;;;;4930346;28;20441;-70
2024/03/24 09:38:41;;;;;;;5.20;3.40;;;9.50;99.90;;;;;;4935761;28;20483;-71
2024/03/24 09:41:07;;;;;;;7.03;3.67;;;9.90;99.90;;;;;;4925229;28;20611;-70
2024/03/24 09:43:35;;;;;;;7.10;3.20;;;10.30;99.90;;;;;;4912556;29;21098;-70
2024/03/24 09:46:01;;;;;;;6.90;3.77;;;10.10;99.90;;;;;;4914435;29;20212;-69
2024/03/24 09:48:28;;;;;;;4.13;3.43;;;9.50;99.90;;;;;;4913315;29;20554;-70
2024/03/24 09:50:56;;;;;;;2.93;2.63;;;9.10;99.90;;;;;;4896739;29;20488;-70
2024/03/24 09:53:23;;;;;;;4.57;3.40;;;9.00;99.90;;;;;;4899884;29;20525;-71
2024/03/24 09:55:50;;;;;;;5.20;3.40;;;9.10;99.90;;;;;;4900215;29;20499;-70
2024/03/24 09:58:19;;;;;;;4.77;3.60;;;9.20;99.90;;;;;;4896938;29;20456;-69
2024/03/24 10:00:45;;;;;;;7.17;4.43;;;9.00;99.90;;;;;;4908675;29;20459;-71
2024/03/24 10:03:13;;;;;;;8.27;3.60;;;8.90;99.90;;;;;;4896883;29;20894;-70
2024/03/24 10:05:40;;;;;;;4.00;3.70;;;8.80;99.90;;;;;;4904942;29;21452;-69
2024/03/24 10:08:10;;;;;;;4.33;3.50;;;8.70;99.90;;;;;;4901495;29;21362;-69
2024/03/24 10:10:36;;;;;;;4.10;2.57;;;8.80;99.90;;;;;;4903758;29;21303;-69
2024/03/24 10:13:04;;;;;;;5.00;3.27;;;9.10;99.90;;;;;;4906425;29;20464;-70
2024/03/24 10:15:30;;;;;;;6.37;3.93;;;10.20;99.90;;;;;;4902564;29;20468;-69
2024/03/24 10:18:04;;;;;;;3.07;2.53;;;11.70;99.90;;;;;;4897072;29;20464;-70
2024/03/24 10:20:30;;;;;;;5.27;2.93;;;12.70;99.90;;;;;;4898482;28;20571;-70
2024/03/24 10:22:58;;;;;;;3.80;3.40;;;13.00;99.90;;;;;;4904287;29;20568;-69
2024/03/24 10:25:27;;;;;;;3.30;2.77;;;12.90;99.90;;;;;;4904380;29;20468;-70
2024/03/24 10:27:55;;;;;;;4.83;2.53;;;12.50;99.90;;;;;;4908836;28;20475;-69
2024/03/24 10:30:21;;;;;;;6.73;3.10;;;11.70;99.90;;;;;;4911827;29;20472;-70
2024/03/24 10:32:48;;;;;;;5.30;2.80;;;11.10;99.90;;;;;;4908055;29;21210;-70
2024/03/24 10:35:14;;;;;;;5.00;3.13;;;10.50;99.90;;;;;;4905411;29;20480;-69
2024/03/24 10:37:41;;;;;;;7.93;2.50;;;9.80;99.90;;;;;;4906961;29;20462;-69
2024/03/24 10:40:12;;;;;;;6.03;3.13;;;9.00;99.90;;;;;;4907782;29;20574;-69
2024/03/24 10:42:48;;;;;;;7.33;1.97;;;8.60;99.90;;;;;;4906776;29;20595;-69
2024/03/24 10:45:14;;;;;;;5.00;2.70;;;8.50;99.90;;;;;;4903208;29;20553;-69
2024/03/24 10:47:42;;;;;;;2.70;2.10;;;8.60;99.90;;;;;;4903488;29;21090;-69
2024/03/24 10:50:13;;;;;;;4.43;2.63;;;8.60;99.90;;;;;;4908171;29;20465;-69
2024/03/24 10:52:42;;;;;;;2.40;1.77;;;8.80;99.90;;;;;;4917370;29;20980;-69
2024/03/24 10:55:09;;;;;;;7.53;2.77;;;8.90;99.90;;;;;;4915909;29;20477;-69
2024/03/24 10:57:40;;;;;;;13.13;3.87;;;8.80;99.90;;;;;;4916866;29;20442;-69
2024/03/24 11:00:07;;;;;;;4.60;2.57;;;8.80;99.90;;;;;;4921629;29;20443;-70
2024/03/24 11:02:36;;;;;;;3.13;1.80;;;8.90;99.90;;;;;;4917079;29;20582;-70
2024/03/24 11:05:03;;;;;;;4.93;1.83;;;8.70;99.90;;;;;;4904694;29;20487;-70
2024/03/24 11:07:32;;;;;;;1.00;0.90;;;8.20;99.90;;;;;;4918383;29;20427;-69
2024/03/24 11:09:59;;;;;;;2.00;1.80;;;8.00;99.90;;;;;;4914521;29;20440;-69
2024/03/24 11:12:26;;;;;;;3.10;1.63;;;8.30;99.90;;;;;;4922185;29;20804;-70
2024/03/24 11:14:56;;;;;;;1.30;1.20;;;8.50;99.90;;;;;;4920501;29;20483;-69
2024/03/24 11:17:24;;;;;;;3.87;2.23;;;8.30;99.90;;;;;;4927087;29;20441;-69
2024/03/24 11:19:50;;;;;;;1.80;1.50;;;8.30;99.90;;;;;;4917056;29;20467;-69
2024/03/24 11:22:21;;;;;;;7.27;1.90;;;8.50;99.90;;;;;;4920058;29;20460;-69
2024/03/24 11:24:47;;;;;;;12.70;2.13;;;8.50;99.90;;;;;;4918635;29;20451;-69
2024/03/24 11:27:27;;;;;;;4.00;2.07;;;8.50;99.90;;;;;;4907712;29;20435;-69
2024/03/24 11:29:56;;;;;;;4.73;1.73;;;8.70;99.90;;;;;;4906911;29;20208;-70
2024/03/24 11:32:43;;;;;;;5.53;1.50;;;8.80;99.90;;;;;;4905572;29;20471;-71
2024/03/24 11:35:11;;;;;;;1.90;1.70;;;8.90;99.90;;;;;;4907688;29;20457;-69
2024/03/24 11:37:46;;;;;;;5.00;1.80;;;8.50;99.90;;;;;;4912412;29;20449;-70
2024/03/24 11:40:13;;;;;;;2.70;1.77;;;8.30;99.90;;;;;;4910170;29;20552;-69
2024/03/24 11:42:40;;;;;;;3.00;2.00;;;7.90;99.90;;;;;;4909087;29;20482;-70
2024/03/24 11:45:42;;;;;;;3.13;2.23;;;7.70;99.90;;;;;;4909563;29;20440;-70
2024/03/24 11:48:38;;;;;;;7.33;1.57;;;7.50;99.90;;;;;;4848275;29;20455;-70
2024/03/24 11:51:05;;;;;;;1.23;0.83;;;7.50;99.90;;;;;;4911691;29;20466;-70
2024/03/24 11:53:32;;;;;;;2.60;1.20;;;7.40;99.90;;;;;;4912184;29;20458;-68
2024/03/24 11:56:00;;;;;;;20.60;2.13;;;7.70;99.90;;;;;;4913640;29;20961;-69
2024/03/24 11:58:27;;;;;;;2.30;1.30;;;8.00;99.90;;;;;;4911155;29;20489;-70
2024/03/24 12:00:54;;;;;;;1.60;1.30;;;8.20;99.90;;;;;;4909728;29;20466;-69
2024/03/24 12:03:21;;;;;;;5.00;1.40;;;8.30;99.90;;;;;;4916196;29;22075;-69
2024/03/24 12:05:47;;;;;;;3.33;2.37;;;8.30;99.90;;;;;;4913595;29;20447;-69
2024/03/24 12:08:14;;;;;;;3.07;1.17;;;8.40;99.90;;;;;;4910626;29;20456;-69
2024/03/24 12:10:40;;;;;;;2.23;1.43;;;9.00;99.90;;;;;;4916313;29;20882;-69
2024/03/24 12:13:07;;;;;;;1.50;1.30;;;9.80;99.90;;;;;;4920278;29;20448;-70
2024/03/24 12:15:33;;;;;;;1.93;1.20;;;10.80;99.90;;;;;;4910295;29;20247;-69
2024/03/24 12:18:11;;;;;;;2.90;1.00;;;11.50;99.90;;;;;;4910667;29;20465;-69
2024/03/24 12:20:38;;;;;;;3.10;1.40;;;12.20;99.90;;;;;;4907528;29;20225;-70
2024/03/24 12:23:05;;;;;;;1.50;1.27;;;12.90;99.90;;;;;;4909831;29;20493;-70
2024/03/24 12:25:31;;;;;;;2.00;1.50;;;13.50;99.90;;;;;;4911365;29;20463;-70
2024/03/24 12:27:58;;;;;;;1.80;1.20;;;13.00;99.90;;;;;;4910612;29;20471;-70
2024/03/24 12:30:26;;;;;;;1.87;1.23;;;13.40;99.90;;;;;;4907559;29;20591;-70
2024/03/24 12:32:56;;;;;;;5.53;1.90;;;13.30;99.90;;;;;;4912319;29;20530;-70
2024/03/24 12:35:24;;;;;;;1.53;1.33;;;12.40;99.90;;;;;;4915107;29;20775;-70
2024/03/24 12:37:51;;;;;;;1.83;1.37;;;11.40;99.90;;;;;;4911490;29;20457;-70
2024/03/24 12:40:19;;;;;;;3.07;1.30;;;11.20;99.90;;;;;;4908674;29;20472;-70
2024/03/24 12:42:46;;;;;;;1.57;1.00;;;11.10;99.90;;;;;;4909508;29;20488;-70
2024/03/24 12:45:14;;;;;;;1.43;1.10;;;10.80;99.90;;;;;;4911880;29;21060;-70
2024/03/24 12:47:41;;;;;;;1.30;0.90;;;10.50;99.90;;;;;;4913308;29;20462;-70
2024/03/24 12:50:27;;;;;;;2.70;1.73;;;10.40;99.90;;;;;;4921605;29;20815;-70
2024/03/24 12:53:14;;;;;;;1.30;1.00;;;10.20;99.90;;;;;;4920620;29;20523;-70
2024/03/24 12:55:42;;;;;;;1.90;1.40;;;10.10;99.90;;;;;;4921694;29;20523;-70
2024/03/24 12:58:13;;;;;;;1.00;0.80;;;10.10;99.90;;;;;;4917273;29;20469;-69